sensor_id;sensor_type;location;lat;lon;timestamp;temperature;humidity
18191;DHT22;47004;51.366;12.348;2022-10-23T00:01:30;11.80;99.90
18191;DHT22;47004;51.366;12.348;2022-10-23T00:03:33;11.80;99.90
18191;DHT22;47004;51.366;12.348;2022-10-23T00:05:38;11.80;99.90
18191;DHT22;47004;51.366;12.348;2022-10-23T00:07:40;11.80;99.90
18191;DHT22;47004;51.366;12.348;2022-10-23T00:09:42;11.70;99.90
18191;DHT22;47004;51.366;12.348;2022-10-23T00:11:45;11.80;99.90
18191;DHT22;47004;51.366;12.348;2022-10-23T00:13:48;11.70;99.90
18191;DHT22;47004;51.366;12.348;2022-10-23T00:15:50;11.70;99.90
18191;DHT22;47004;51.366;12.348;2022-10-23T00:17:52;11.80;99.90
18191;DHT22;47004;51.366;12.348;2022-10-23T00:19:56;11.70;99.90
18191;DHT22;47004;51.366;12.348;2022-10-23T00:21:57;11.70;99.90
18191;DHT22;47004;51.366;12.348;2022-10-23T00:23:59;11.70;99.90
18191;DHT22;47004;51.366;12.348;2022-10-23T00:26:01;11.70;99.90
18191;DHT22;47004;51.366;12.348;2022-10-23T00:28:04;11.70;99.90
18191;DHT22;47004;51.366;12.348;2022-10-23T00:30:06;11.70;99.90
18191;DHT22;47004;51.366;12.348;2022-10-23T00:32:08;11.70;99.90
18191;DHT22;47004;51.366;12.348;2022-10-23T00:34:10;11.50;99.90
18191;DHT22;47004;51.366;12.348;2022-10-23T00:36:15;11.70;99.90
18191;DHT22;47004;51.366;12.348;2022-10-23T00:38:17;11.70;99.90
18191;DHT22;47004;51.366;12.348;2022-10-23T00:40:19;11.60;99.90
18191;DHT22;47004;51.366;12.348;2022-10-23T00:42:22;11.60;99.90
18191;DHT22;47004;51.366;12.348;2022-10-23T00:47:03;11.60;99.90
18191;DHT22;47004;51.366;12.348;2022-10-23T00:49:06;11.60;99.90
18191;DHT22;47004;51.366;12.348;2022-10-23T00:51:08;11.60;99.90
18191;DHT22;47004;51.366;12.348;2022-10-23T00:53:14;11.60;99.90
18191;DHT22;47004;51.366;12.348;2022-10-23T00:55:18;11.60;99.90
18191;DHT22;47004;51.366;12.348;2022-10-23T00:57:21;11.60;99.90
18191;DHT22;47004;51.366;12.348;2022-10-23T00:59:23;11.60;99.90
18191;DHT22;47004;51.366;12.348;2022-10-23T01:01:25;11.60;99.90
18191;DHT22;47004;51.366;12.348;2022-10-23T01:03:28;11.60;99.90
18191;DHT22;47004;51.366;12.348;2022-10-23T01:05:37;11.60;99.90
18191;DHT22;47004;51.366;12.348;2022-10-23T01:07:49;11.60;99.90
18191;DHT22;47004;51.366;12.348;2022-10-23T01:09:59;11.50;99.90
18191;DHT22;47004;51.366;12.348;2022-10-23T01:12:09;11.50;99.90
18191;DHT22;47004;51.366;12.348;2022-10-23T01:14:22;11.50;99.90
18191;DHT22;47004;51.366;12.348;2022-10-23T01:16:33;11.90;99.90
18191;DHT22;47004;51.366;12.348;2022-10-23T01:18:44;11.80;99.90
18191;DHT22;47004;51.366;12.348;2022-10-23T01:20:52;11.60;99.90
18191;DHT22;47004;51.366;12.348;2022-10-23T01:23:21;11.50;99.90
18191;DHT22;47004;51.366;12.348;2022-10-23T01:25:39;11.50;99.90
18191;DHT22;47004;51.366;12.348;2022-10-23T01:27:51;11.50;99.90
18191;DHT22;47004;51.366;12.348;2022-10-23T01:30:02;11.50;99.90
18191;DHT22;47004;51.366;12.348;2022-10-23T01:32:09;11.60;99.90
18191;DHT22;47004;51.366;12.348;2022-10-23T01:34:15;11.60;99.90
18191;DHT22;47004;51.366;12.348;2022-10-23T01:36:24;11.60;99.90
18191;DHT22;47004;51.366;12.348;2022-10-23T01:38:34;11.50;99.90
18191;DHT22;47004;51.366;12.348;2022-10-23T01:40:44;11.50;99.90
18191;DHT22;47004;51.366;12.348;2022-10-23T01:42:52;11.60;99.90
18191;DHT22;47004;51.366;12.348;2022-10-23T01:45:00;11.90;99.90
18191;DHT22;47004;51.366;12.348;2022-10-23T01:47:05;11.50;99.90
18191;DHT22;47004;51.366;12.348;2022-10-23T01:49:10;11.50;99.90
18191;DHT22;47004;51.366;12.348;2022-10-23T01:51:14;11.50;99.90
18191;DHT22;47004;51.366;12.348;2022-10-23T01:53:17;11.50;99.90
18191;DHT22;47004;51.366;12.348;2022-10-23T01:55:21;11.50;99.90
18191;DHT22;47004;51.366;12.348;2022-10-23T01:57:27;11.50;99.90
18191;DHT22;47004;51.366;12.348;2022-10-23T01:59:33;11.50;99.90
18191;DHT22;47004;51.366;12.348;2022-10-23T02:01:38;11.50;99.90
18191;DHT22;47004;51.366;12.348;2022-10-23T02:03:43;11.50;99.90
18191;DHT22;47004;51.366;12.348;2022-10-23T02:05:46;11.40;99.90
18191;DHT22;47004;51.366;12.348;2022-10-23T02:07:48;11.50;99.90
18191;DHT22;47004;51.366;12.348;2022-10-23T02:09:50;11.50;99.90
18191;DHT22;47004;51.366;12.348;2022-10-23T02:11:56;11.50;99.90
18191;DHT22;47004;51.366;12.348;2022-10-23T02:14:05;11.50;99.90
18191;DHT22;47004;51.366;12.348;2022-10-23T02:16:16;11.50;99.90
18191;DHT22;47004;51.366;12.348;2022-10-23T02:18:29;11.50;99.90
18191;DHT22;47004;51.366;12.348;2022-10-23T02:20:37;11.50;99.90
18191;DHT22;47004;51.366;12.348;2022-10-23T02:22:44;11.50;99.90
18191;DHT22;47004;51.366;12.348;2022-10-23T02:24:52;11.50;99.90
18191;DHT22;47004;51.366;12.348;2022-10-23T02:26:56;11.40;99.90
18191;DHT22;47004;51.366;12.348;2022-10-23T02:29:06;11.50;99.90
18191;DHT22;47004;51.366;12.348;2022-10-23T02:31:15;11.50;99.90
18191;DHT22;47004;51.366;12.348;2022-10-23T02:33:18;11.60;99.90
18191;DHT22;47004;51.366;12.348;2022-10-23T02:35:22;11.40;99.90
18191;DHT22;47004;51.366;12.348;2022-10-23T02:37:25;11.30;99.90
18191;DHT22;47004;51.366;12.348;2022-10-23T02:39:27;11.50;99.90
18191;DHT22;47004;51.366;12.348;2022-10-23T02:41:38;11.50;99.90
18191;DHT22;47004;51.366;12.348;2022-10-23T02:43:48;11.60;99.90
18191;DHT22;47004;51.366;12.348;2022-10-23T02:45:58;11.70;99.90
18191;DHT22;47004;51.366;12.348;2022-10-23T02:48:10;11.50;99.90
18191;DHT22;47004;51.366;12.348;2022-10-23T02:50:20;11.60;99.90
18191;DHT22;47004;51.366;12.348;2022-10-23T02:52:30;11.50;99.90
18191;DHT22;47004;51.366;12.348;2022-10-23T02:54:44;11.50;99.90
18191;DHT22;47004;51.366;12.348;2022-10-23T02:56:53;11.50;99.90
18191;DHT22;47004;51.366;12.348;2022-10-23T02:59:03;11.60;99.90
18191;DHT22;47004;51.366;12.348;2022-10-23T03:01:09;11.60;99.90
18191;DHT22;47004;51.366;12.348;2022-10-23T03:03:17;11.60;99.90
18191;DHT22;47004;51.366;12.348;2022-10-23T03:05:22;11.60;99.90
18191;DHT22;47004;51.366;12.348;2022-10-23T03:07:25;11.60;99.90
18191;DHT22;47004;51.366;12.348;2022-10-23T03:09:27;11.60;99.90
18191;DHT22;47004;51.366;12.348;2022-10-23T03:11:29;11.60;99.90
18191;DHT22;47004;51.366;12.348;2022-10-23T03:13:31;11.60;99.90
18191;DHT22;47004;51.366;12.348;2022-10-23T03:15:33;11.60;99.90
18191;DHT22;47004;51.366;12.348;2022-10-23T03:17:35;11.60;99.90
18191;DHT22;47004;51.366;12.348;2022-10-23T03:19:38;11.60;99.90
18191;DHT22;47004;51.366;12.348;2022-10-23T03:21:40;11.50;99.90
18191;DHT22;47004;51.366;12.348;2022-10-23T03:23:42;11.50;99.90
18191;DHT22;47004;51.366;12.348;2022-10-23T03:25:43;11.60;99.90
18191;DHT22;47004;51.366;12.348;2022-10-23T03:27:45;11.70;99.90
18191;DHT22;47004;51.366;12.348;2022-10-23T03:29:47;11.50;99.90
18191;DHT22;47004;51.366;12.348;2022-10-23T03:31:49;11.50;99.90
18191;DHT22;47004;51.366;12.348;2022-10-23T03:33:51;11.50;99.90
18191;DHT22;47004;51.366;12.348;2022-10-23T03:35:54;11.50;99.90
18191;DHT22;47004;51.366;12.348;2022-10-23T03:37:56;11.40;99.90
18191;DHT22;47004;51.366;12.348;2022-10-23T03:39:58;11.40;99.90
18191;DHT22;47004;51.366;12.348;2022-10-23T03:42:00;11.40;99.90
18191;DHT22;47004;51.366;12.348;2022-10-23T03:44:02;11.40;99.90
18191;DHT22;47004;51.366;12.348;2022-10-23T03:46:04;11.40;99.90
18191;DHT22;47004;51.366;12.348;2022-10-23T03:48:11;11.40;99.90
18191;DHT22;47004;51.366;12.348;2022-10-23T03:50:14;11.40;99.90
18191;DHT22;47004;51.366;12.348;2022-10-23T03:52:17;11.40;99.90
18191;DHT22;47004;51.366;12.348;2022-10-23T03:54:20;11.40;99.90
18191;DHT22;47004;51.366;12.348;2022-10-23T03:56:25;11.30;99.90
18191;DHT22;47004;51.366;12.348;2022-10-23T03:58:26;11.40;99.90
18191;DHT22;47004;51.366;12.348;2022-10-23T04:00:28;11.30;99.90
18191;DHT22;47004;51.366;12.348;2022-10-23T04:02:30;11.30;99.90
18191;DHT22;47004;51.366;12.348;2022-10-23T04:04:32;11.30;99.90
18191;DHT22;47004;51.366;12.348;2022-10-23T04:06:34;11.30;99.90
18191;DHT22;47004;51.366;12.348;2022-10-23T04:08:37;11.30;99.90
18191;DHT22;47004;51.366;12.348;2022-10-23T04:10:39;11.30;99.90
18191;DHT22;47004;51.366;12.348;2022-10-23T04:12:41;11.30;99.90
18191;DHT22;47004;51.366;12.348;2022-10-23T04:14:46;11.10;99.90
18191;DHT22;47004;51.366;12.348;2022-10-23T04:16:48;11.30;99.90
18191;DHT22;47004;51.366;12.348;2022-10-23T04:18:50;11.30;99.90
18191;DHT22;47004;51.366;12.348;2022-10-23T04:20:52;11.30;99.90
18191;DHT22;47004;51.366;12.348;2022-10-23T04:22:54;11.60;99.90
18191;DHT22;47004;51.366;12.348;2022-10-23T04:24:57;11.20;99.90
18191;DHT22;47004;51.366;12.348;2022-10-23T04:26:59;11.20;99.90
18191;DHT22;47004;51.366;12.348;2022-10-23T04:29:01;11.20;99.90
18191;DHT22;47004;51.366;12.348;2022-10-23T04:31:02;11.20;99.90
18191;DHT22;47004;51.366;12.348;2022-10-23T04:33:05;11.20;99.90
18191;DHT22;47004;51.366;12.348;2022-10-23T04:35:07;11.40;99.90
18191;DHT22;47004;51.366;12.348;2022-10-23T04:37:09;11.10;99.90
18191;DHT22;47004;51.366;12.348;2022-10-23T04:39:11;11.10;99.90
18191;DHT22;47004;51.366;12.348;2022-10-23T04:41:15;11.10;99.90
18191;DHT22;47004;51.366;12.348;2022-10-23T04:43:17;11.10;99.90
18191;DHT22;47004;51.366;12.348;2022-10-23T04:45:18;11.30;99.90
18191;DHT22;47004;51.366;12.348;2022-10-23T04:47:20;11.10;99.90
18191;DHT22;47004;51.366;12.348;2022-10-23T04:49:22;11.00;99.90
18191;DHT22;47004;51.366;12.348;2022-10-23T04:51:24;11.00;99.90
18191;DHT22;47004;51.366;12.348;2022-10-23T04:53:27;11.00;99.90
18191;DHT22;47004;51.366;12.348;2022-10-23T04:55:29;11.60;99.90
18191;DHT22;47004;51.366;12.348;2022-10-23T04:57:32;11.40;99.90
18191;DHT22;47004;51.366;12.348;2022-10-23T04:59:34;11.00;99.90
18191;DHT22;47004;51.366;12.348;2022-10-23T05:01:36;11.00;99.90
18191;DHT22;47004;51.366;12.348;2022-10-23T05:03:38;11.00;99.90
18191;DHT22;47004;51.366;12.348;2022-10-23T05:05:40;10.90;99.90
18191;DHT22;47004;51.366;12.348;2022-10-23T05:07:44;10.90;99.90
18191;DHT22;47004;51.366;12.348;2022-10-23T05:09:47;10.90;99.90
18191;DHT22;47004;51.366;12.348;2022-10-23T05:11:49;10.90;99.90
18191;DHT22;47004;51.366;12.348;2022-10-23T05:13:52;10.90;99.90
18191;DHT22;47004;51.366;12.348;2022-10-23T05:15:56;10.90;99.90
18191;DHT22;47004;51.366;12.348;2022-10-23T05:18:03;10.90;99.90
18191;DHT22;47004;51.366;12.348;2022-10-23T05:20:08;10.90;99.90
18191;DHT22;47004;51.366;12.348;2022-10-23T05:22:12;10.80;99.90
18191;DHT22;47004;51.366;12.348;2022-10-23T05:24:15;10.80;99.90
18191;DHT22;47004;51.366;12.348;2022-10-23T05:26:17;10.90;99.90
18191;DHT22;47004;51.366;12.348;2022-10-23T05:28:20;10.90;99.90
18191;DHT22;47004;51.366;12.348;2022-10-23T05:30:23;10.80;99.90
18191;DHT22;47004;51.366;12.348;2022-10-23T05:32:30;10.90;99.90
18191;DHT22;47004;51.366;12.348;2022-10-23T05:34:34;10.80;99.90
18191;DHT22;47004;51.366;12.348;2022-10-23T05:36:37;10.80;99.90
18191;DHT22;47004;51.366;12.348;2022-10-23T05:38:39;10.80;99.90
18191;DHT22;47004;51.366;12.348;2022-10-23T05:40:42;10.80;99.90
18191;DHT22;47004;51.366;12.348;2022-10-23T05:42:43;10.80;99.90
18191;DHT22;47004;51.366;12.348;2022-10-23T05:44:46;10.80;99.90
18191;DHT22;47004;51.366;12.348;2022-10-23T05:46:50;10.80;99.90
18191;DHT22;47004;51.366;12.348;2022-10-23T05:48:52;10.80;99.90
18191;DHT22;47004;51.366;12.348;2022-10-23T05:50:54;10.80;99.90
18191;DHT22;47004;51.366;12.348;2022-10-23T05:52:55;10.80;99.90
18191;DHT22;47004;51.366;12.348;2022-10-23T05:54:57;10.90;99.90
18191;DHT22;47004;51.366;12.348;2022-10-23T05:56:59;10.60;99.90
18191;DHT22;47004;51.366;12.348;2022-10-23T05:59:01;10.70;99.90
18191;DHT22;47004;51.366;12.348;2022-10-23T06:01:05;10.70;99.90
18191;DHT22;47004;51.366;12.348;2022-10-23T06:03:08;10.80;99.90
18191;DHT22;47004;51.366;12.348;2022-10-23T06:05:10;10.70;99.90
18191;DHT22;47004;51.366;12.348;2022-10-23T06:07:12;10.50;99.90
18191;DHT22;47004;51.366;12.348;2022-10-23T06:09:14;10.70;99.90
18191;DHT22;47004;51.366;12.348;2022-10-23T06:11:16;10.80;99.90
18191;DHT22;47004;51.366;12.348;2022-10-23T06:13:21;10.70;99.90
18191;DHT22;47004;51.366;12.348;2022-10-23T06:15:23;11.00;99.90
18191;DHT22;47004;51.366;12.348;2022-10-23T06:17:25;10.70;99.90
18191;DHT22;47004;51.366;12.348;2022-10-23T06:19:29;10.70;99.90
18191;DHT22;47004;51.366;12.348;2022-10-23T06:21:31;10.70;99.90
18191;DHT22;47004;51.366;12.348;2022-10-23T06:23:40;10.90;99.90
18191;DHT22;47004;51.366;12.348;2022-10-23T06:25:42;11.30;99.90
18191;DHT22;47004;51.366;12.348;2022-10-23T06:27:50;10.60;99.90
18191;DHT22;47004;51.366;12.348;2022-10-23T06:29:52;10.80;99.90
18191;DHT22;47004;51.366;12.348;2022-10-23T06:31:54;10.80;99.90
18191;DHT22;47004;51.366;12.348;2022-10-23T06:33:57;10.80;99.90
18191;DHT22;47004;51.366;12.348;2022-10-23T06:36:01;10.80;99.90
18191;DHT22;47004;51.366;12.348;2022-10-23T06:38:05;10.80;99.90
18191;DHT22;47004;51.366;12.348;2022-10-23T06:40:09;10.80;99.90
18191;DHT22;47004;51.366;12.348;2022-10-23T06:42:11;10.80;99.90
18191;DHT22;47004;51.366;12.348;2022-10-23T06:44:13;11.00;99.90
18191;DHT22;47004;51.366;12.348;2022-10-23T06:46:15;10.90;99.90
18191;DHT22;47004;51.366;12.348;2022-10-23T06:48:17;11.20;99.90
18191;DHT22;47004;51.366;12.348;2022-10-23T06:50:22;11.10;99.90
18191;DHT22;47004;51.366;12.348;2022-10-23T06:52:27;10.90;99.90
18191;DHT22;47004;51.366;12.348;2022-10-23T06:54:31;10.90;99.90
18191;DHT22;47004;51.366;12.348;2022-10-23T06:56:33;11.00;99.90
18191;DHT22;47004;51.366;12.348;2022-10-23T06:58:36;11.20;99.90
18191;DHT22;47004;51.366;12.348;2022-10-23T07:00:38;11.00;99.90
18191;DHT22;47004;51.366;12.348;2022-10-23T07:02:42;11.00;99.90
18191;DHT22;47004;51.366;12.348;2022-10-23T07:04:44;11.10;99.90
18191;DHT22;47004;51.366;12.348;2022-10-23T07:06:46;11.10;99.90
18191;DHT22;47004;51.366;12.348;2022-10-23T07:08:49;11.30;99.90
18191;DHT22;47004;51.366;12.348;2022-10-23T07:10:52;11.30;99.90
18191;DHT22;47004;51.366;12.348;2022-10-23T07:12:54;11.20;99.90
18191;DHT22;47004;51.366;12.348;2022-10-23T07:15:00;11.20;99.90
18191;DHT22;47004;51.366;12.348;2022-10-23T07:17:02;11.20;99.90
18191;DHT22;47004;51.366;12.348;2022-10-23T07:19:04;11.30;99.90
18191;DHT22;47004;51.366;12.348;2022-10-23T07:21:06;11.30;99.90
18191;DHT22;47004;51.366;12.348;2022-10-23T07:23:08;11.50;99.90
18191;DHT22;47004;51.366;12.348;2022-10-23T07:25:13;11.40;99.90
18191;DHT22;47004;51.366;12.348;2022-10-23T07:27:15;11.60;99.90
18191;DHT22;47004;51.366;12.348;2022-10-23T07:29:17;11.50;99.90
18191;DHT22;47004;51.366;12.348;2022-10-23T07:31:19;11.60;99.90
18191;DHT22;47004;51.366;12.348;2022-10-23T07:33:21;11.60;99.90
18191;DHT22;47004;51.366;12.348;2022-10-23T07:35:22;11.70;99.90
18191;DHT22;47004;51.366;12.348;2022-10-23T07:37:30;11.80;99.90
18191;DHT22;47004;51.366;12.348;2022-10-23T07:39:32;11.80;99.90
18191;DHT22;47004;51.366;12.348;2022-10-23T07:41:35;11.80;99.90
18191;DHT22;47004;51.366;12.348;2022-10-23T07:43:37;11.90;99.90
18191;DHT22;47004;51.366;12.348;2022-10-23T07:45:39;11.90;99.90
18191;DHT22;47004;51.366;12.348;2022-10-23T07:47:42;11.90;99.90
18191;DHT22;47004;51.366;12.348;2022-10-23T07:49:43;12.00;99.90
18191;DHT22;47004;51.366;12.348;2022-10-23T07:51:45;12.00;99.90
18191;DHT22;47004;51.366;12.348;2022-10-23T07:53:53;12.10;99.90
18191;DHT22;47004;51.366;12.348;2022-10-23T07:55:56;12.10;99.90
18191;DHT22;47004;51.366;12.348;2022-10-23T07:58:00;12.20;99.90
18191;DHT22;47004;51.366;12.348;2022-10-23T08:00:02;12.20;99.90
18191;DHT22;47004;51.366;12.348;2022-10-23T08:02:09;12.30;99.90
18191;DHT22;47004;51.366;12.348;2022-10-23T08:04:11;12.20;99.90
18191;DHT22;47004;51.366;12.348;2022-10-23T08:06:13;12.30;99.90
18191;DHT22;47004;51.366;12.348;2022-10-23T08:08:15;12.40;99.90
18191;DHT22;47004;51.366;12.348;2022-10-23T08:10:17;12.40;99.90
18191;DHT22;47004;51.366;12.348;2022-10-23T08:12:19;12.50;99.90
18191;DHT22;47004;51.366;12.348;2022-10-23T08:14:23;12.50;99.90
18191;DHT22;47004;51.366;12.348;2022-10-23T08:16:24;12.60;99.90
18191;DHT22;47004;51.366;12.348;2022-10-23T08:18:27;12.60;99.90
18191;DHT22;47004;51.366;12.348;2022-10-23T08:20:28;12.70;99.90
18191;DHT22;47004;51.366;12.348;2022-10-23T08:22:34;12.70;99.90
18191;DHT22;47004;51.366;12.348;2022-10-23T08:24:38;12.80;99.90
18191;DHT22;47004;51.366;12.348;2022-10-23T08:26:42;13.00;99.90
18191;DHT22;47004;51.366;12.348;2022-10-23T08:28:44;12.90;99.90
18191;DHT22;47004;51.366;12.348;2022-10-23T08:30:47;12.90;99.90
18191;DHT22;47004;51.366;12.348;2022-10-23T08:32:49;13.00;99.90
18191;DHT22;47004;51.366;12.348;2022-10-23T08:34:51;13.00;99.90
18191;DHT22;47004;51.366;12.348;2022-10-23T08:36:53;13.10;99.90
18191;DHT22;47004;51.366;12.348;2022-10-23T08:38:57;13.20;99.90
18191;DHT22;47004;51.366;12.348;2022-10-23T08:40:59;13.20;99.90
18191;DHT22;47004;51.366;12.348;2022-10-23T08:43:05;13.30;99.90
18191;DHT22;47004;51.366;12.348;2022-10-23T08:45:28;13.40;99.90
18191;DHT22;47004;51.366;12.348;2022-10-23T08:47:38;13.40;99.90
18191;DHT22;47004;51.366;12.348;2022-10-23T08:49:45;13.50;99.90
18191;DHT22;47004;51.366;12.348;2022-10-23T08:51:52;13.50;99.90
18191;DHT22;47004;51.366;12.348;2022-10-23T08:54:00;13.60;99.90
18191;DHT22;47004;51.366;12.348;2022-10-23T08:56:08;13.60;99.90
18191;DHT22;47004;51.366;12.348;2022-10-23T08:58:16;13.70;99.90
18191;DHT22;47004;51.366;12.348;2022-10-23T09:00:19;13.70;99.90
18191;DHT22;47004;51.366;12.348;2022-10-23T09:02:23;13.80;99.90
18191;DHT22;47004;51.366;12.348;2022-10-23T09:04:28;13.90;99.90
18191;DHT22;47004;51.366;12.348;2022-10-23T09:06:38;14.00;99.90
18191;DHT22;47004;51.366;12.348;2022-10-23T09:08:49;14.00;99.90
18191;DHT22;47004;51.366;12.348;2022-10-23T09:11:00;14.10;99.90
18191;DHT22;47004;51.366;12.348;2022-10-23T09:13:20;14.20;99.90
18191;DHT22;47004;51.366;12.348;2022-10-23T09:15:26;14.20;99.90
18191;DHT22;47004;51.366;12.348;2022-10-23T09:17:34;14.30;99.90
18191;DHT22;47004;51.366;12.348;2022-10-23T09:19:38;14.40;99.90
18191;DHT22;47004;51.366;12.348;2022-10-23T09:21:41;14.40;99.90
18191;DHT22;47004;51.366;12.348;2022-10-23T09:23:45;14.50;99.90
18191;DHT22;47004;51.366;12.348;2022-10-23T09:25:48;14.60;99.90
18191;DHT22;47004;51.366;12.348;2022-10-23T09:27:56;14.60;99.90
18191;DHT22;47004;51.366;12.348;2022-10-23T09:29:58;14.70;99.90
18191;DHT22;47004;51.366;12.348;2022-10-23T09:32:01;14.80;99.90
18191;DHT22;47004;51.366;12.348;2022-10-23T09:34:03;14.80;99.90
18191;DHT22;47004;51.366;12.348;2022-10-23T09:36:18;14.90;99.90
18191;DHT22;47004;51.366;12.348;2022-10-23T09:38:29;14.90;99.90
18191;DHT22;47004;51.366;12.348;2022-10-23T09:40:37;15.10;99.90
18191;DHT22;47004;51.366;12.348;2022-10-23T09:42:50;15.20;99.90
18191;DHT22;47004;51.366;12.348;2022-10-23T09:44:53;15.30;99.90
18191;DHT22;47004;51.366;12.348;2022-10-23T09:47:08;15.40;99.90
18191;DHT22;47004;51.366;12.348;2022-10-23T09:49:18;15.40;99.90
18191;DHT22;47004;51.366;12.348;2022-10-23T09:51:24;15.50;99.90
18191;DHT22;47004;51.366;12.348;2022-10-23T09:53:32;15.60;99.90
18191;DHT22;47004;51.366;12.348;2022-10-23T09:55:36;15.60;99.90
18191;DHT22;47004;51.366;12.348;2022-10-23T09:57:40;15.70;99.90
18191;DHT22;47004;51.366;12.348;2022-10-23T09:59:42;15.80;99.90
18191;DHT22;47004;51.366;12.348;2022-10-23T10:01:47;15.80;99.90
18191;DHT22;47004;51.366;12.348;2022-10-23T10:03:50;15.90;99.90
18191;DHT22;47004;51.366;12.348;2022-10-23T10:05:55;15.90;99.90
18191;DHT22;47004;51.366;12.348;2022-10-23T10:08:02;16.00;99.90
18191;DHT22;47004;51.366;12.348;2022-10-23T10:10:09;16.00;99.90
18191;DHT22;47004;51.366;12.348;2022-10-23T10:12:30;16.10;99.90
18191;DHT22;47004;51.366;12.348;2022-10-23T10:14:47;16.10;99.90
18191;DHT22;47004;51.366;12.348;2022-10-23T10:16:53;16.20;99.90
18191;DHT22;47004;51.366;12.348;2022-10-23T10:19:05;16.20;99.90
18191;DHT22;47004;51.366;12.348;2022-10-23T10:21:16;16.20;99.90
18191;DHT22;47004;51.366;12.348;2022-10-23T10:23:27;16.30;99.90
18191;DHT22;47004;51.366;12.348;2022-10-23T10:25:36;16.30;99.90
18191;DHT22;47004;51.366;12.348;2022-10-23T10:27:44;16.30;99.90
18191;DHT22;47004;51.366;12.348;2022-10-23T10:30:01;16.40;99.90
18191;DHT22;47004;51.366;12.348;2022-10-23T10:32:15;16.40;99.90
18191;DHT22;47004;51.366;12.348;2022-10-23T10:34:27;16.40;99.90
18191;DHT22;47004;51.366;12.348;2022-10-23T10:36:40;16.40;99.90
18191;DHT22;47004;51.366;12.348;2022-10-23T10:38:47;16.50;99.90
18191;DHT22;47004;51.366;12.348;2022-10-23T10:41:04;16.60;99.90
18191;DHT22;47004;51.366;12.348;2022-10-23T10:43:22;16.70;99.90
18191;DHT22;47004;51.366;12.348;2022-10-23T10:45:31;16.60;99.90
18191;DHT22;47004;51.366;12.348;2022-10-23T10:47:41;16.70;99.90
18191;DHT22;47004;51.366;12.348;2022-10-23T10:49:56;16.80;99.90
18191;DHT22;47004;51.366;12.348;2022-10-23T10:52:05;16.80;99.90
18191;DHT22;47004;51.366;12.348;2022-10-23T10:54:26;16.90;99.90
18191;DHT22;47004;51.366;12.348;2022-10-23T10:56:32;17.00;99.90
18191;DHT22;47004;51.366;12.348;2022-10-23T10:58:38;17.20;99.90
18191;DHT22;47004;51.366;12.348;2022-10-23T11:00:43;17.20;99.90
18191;DHT22;47004;51.366;12.348;2022-10-23T11:02:50;17.40;99.90
18191;DHT22;47004;51.366;12.348;2022-10-23T11:05:02;17.40;99.90
18191;DHT22;47004;51.366;12.348;2022-10-23T11:07:19;17.50;99.90
18191;DHT22;47004;51.366;12.348;2022-10-23T11:09:26;17.60;99.90
18191;DHT22;47004;51.366;12.348;2022-10-23T11:11:34;17.70;99.90
18191;DHT22;47004;51.366;12.348;2022-10-23T11:13:38;17.90;99.90
18191;DHT22;47004;51.366;12.348;2022-10-23T11:15:42;17.90;99.90
18191;DHT22;47004;51.366;12.348;2022-10-23T11:17:47;18.00;99.90
18191;DHT22;47004;51.366;12.348;2022-10-23T11:19:56;18.10;99.90
18191;DHT22;47004;51.366;12.348;2022-10-23T11:22:03;18.30;99.90
18191;DHT22;47004;51.366;12.348;2022-10-23T11:24:28;18.40;99.90
18191;DHT22;47004;51.366;12.348;2022-10-23T11:26:44;18.50;99.90
18191;DHT22;47004;51.366;12.348;2022-10-23T11:29:17;18.70;99.90
18191;DHT22;47004;51.366;12.348;2022-10-23T11:31:28;18.90;99.90
18191;DHT22;47004;51.366;12.348;2022-10-23T11:33:59;19.00;99.90
18191;DHT22;47004;51.366;12.348;2022-10-23T11:36:11;19.20;99.90
18191;DHT22;47004;51.366;12.348;2022-10-23T11:38:17;19.40;99.90
18191;DHT22;47004;51.366;12.348;2022-10-23T11:40:23;19.50;99.90
18191;DHT22;47004;51.366;12.348;2022-10-23T11:42:33;19.70;99.90
18191;DHT22;47004;51.366;12.348;2022-10-23T11:44:46;19.90;99.90
18191;DHT22;47004;51.366;12.348;2022-10-23T11:46:59;20.10;99.90
18191;DHT22;47004;51.366;12.348;2022-10-23T11:49:02;20.30;99.90
18191;DHT22;47004;51.366;12.348;2022-10-23T11:53:25;20.70;99.90
18191;DHT22;47004;51.366;12.348;2022-10-23T11:55:30;20.90;99.90
18191;DHT22;47004;51.366;12.348;2022-10-23T11:57:32;21.10;99.90
18191;DHT22;47004;51.366;12.348;2022-10-23T11:59:35;21.30;99.90
18191;DHT22;47004;51.366;12.348;2022-10-23T12:01:41;21.40;99.90
18191;DHT22;47004;51.366;12.348;2022-10-23T12:03:49;21.50;99.90
18191;DHT22;47004;51.366;12.348;2022-10-23T12:05:58;21.60;99.90
18191;DHT22;47004;51.366;12.348;2022-10-23T12:08:02;21.60;99.90
18191;DHT22;47004;51.366;12.348;2022-10-23T12:10:16;21.70;99.90
18191;DHT22;47004;51.366;12.348;2022-10-23T12:12:29;21.90;99.90
18191;DHT22;47004;51.366;12.348;2022-10-23T12:14:35;22.10;99.90
18191;DHT22;47004;51.366;12.348;2022-10-23T12:16:37;22.30;99.90
18191;DHT22;47004;51.366;12.348;2022-10-23T12:18:46;22.50;99.10
18191;DHT22;47004;51.366;12.348;2022-10-23T12:20:53;22.70;99.60
18191;DHT22;47004;51.366;12.348;2022-10-23T12:23:17;22.90;97.80
18191;DHT22;47004;51.366;12.348;2022-10-23T12:25:25;23.10;95.60
18191;DHT22;47004;51.366;12.348;2022-10-23T12:27:33;23.30;91.40
18191;DHT22;47004;51.366;12.348;2022-10-23T12:29:53;23.40;89.00
18191;DHT22;47004;51.366;12.348;2022-10-23T12:32:05;23.50;83.50
18191;DHT22;47004;51.366;12.348;2022-10-23T12:34:19;23.50;78.80
18191;DHT22;47004;51.366;12.348;2022-10-23T12:36:41;23.60;81.60
18191;DHT22;47004;51.366;12.348;2022-10-23T12:38:45;23.70;81.00
18191;DHT22;47004;51.366;12.348;2022-10-23T12:40:51;23.80;78.70
18191;DHT22;47004;51.366;12.348;2022-10-23T12:42:57;23.90;78.60
18191;DHT22;47004;51.366;12.348;2022-10-23T12:44:59;23.90;70.60
18191;DHT22;47004;51.366;12.348;2022-10-23T12:47:03;24.10;70.60
18191;DHT22;47004;51.366;12.348;2022-10-23T12:49:13;24.10;74.50
18191;DHT22;47004;51.366;12.348;2022-10-23T12:51:22;24.20;71.20
18191;DHT22;47004;51.366;12.348;2022-10-23T12:53:24;24.30;70.70
18191;DHT22;47004;51.366;12.348;2022-10-23T12:55:28;24.30;69.80
18191;DHT22;47004;51.366;12.348;2022-10-23T12:57:40;24.40;70.70
18191;DHT22;47004;51.366;12.348;2022-10-23T12:59:44;24.40;66.40
18191;DHT22;47004;51.366;12.348;2022-10-23T13:01:46;24.50;66.70
18191;DHT22;47004;51.366;12.348;2022-10-23T13:03:48;24.50;63.20
18191;DHT22;47004;51.366;12.348;2022-10-23T13:05:52;24.50;62.50